Terminal Aerodrome Forecast
Issued by NWS Melbourne, FL

Home | Current Version | Previous Version | Text Only | Print | Product List | Glossary On
Versions: 1 2 3 4 5 6 7 8 9 10 11 12 13 14 15 16 17 18 19 20
000
FTUS42 KMLB 011500 AAA
TAFVRB
TAF AMD
KVRB 011506Z 0115/0212 25005KT P6SM VCSH SCT015 BKN020
     FM011800 05007KT P6SM VCTS SCT025CB BKN060
     FM012300 08006KT P6SM FEW025 SCT100 SCT250=

USA.gov is the U.S. government's official web portal to all federal, state and local government web resources and services.